Time;durP1;ratioP1;P1;durP2;ratioP2;P2;SDS_P1;SDS_P2;PMS_P1;PMS_P2;Temp;Humidity;BMP_temperature;BMP_pressure;BME280_temperature;BME280_humidity;BME280_pressure;Samples;Min_cycle;Max_cycle;Signal;HPM_P1;HPM_P2
2023/06/19 00:01:45;;;;;;;9.30;7.82;;;;;;;23.03;50.78;100702.22;5070103;28;20020;-63
2023/06/19 00:04:11;;;;;;;8.50;7.65;;;;;;;23.03;50.69;100709.91;5069451;28;20464;-63
2023/06/19 00:06:36;;;;;;;9.30;7.93;;;;;;;22.96;51.22;100712.41;5069887;28;20024;-62
2023/06/19 00:09:02;;;;;;;10.57;7.22;;;;;;;23.01;50.93;100712.22;5069636;28;20391;-62
2023/06/19 00:11:27;;;;;;;9.70;7.30;;;;;;;22.97;50.94;100711.25;5067987;28;20032;-63
2023/06/19 00:13:53;;;;;;;11.40;7.18;;;;;;;22.97;51.20;100719.72;5079773;28;20044;-62
2023/06/19 00:16:19;;;;;;;9.32;7.40;;;;;;;22.94;50.93;100726.06;5070609;28;20055;-63
2023/06/19 00:18:44;;;;;;;7.53;6.82;;;;;;;22.90;51.06;100725.88;5068936;28;20388;-62
2023/06/19 00:21:10;;;;;;;9.57;7.80;;;;;;;22.84;51.24;100734.91;5070097;28;20040;-62
2023/06/19 00:23:35;;;;;;;8.15;7.35;;;;;;;22.85;51.22;100742.22;5069585;28;20103;-63
2023/06/19 00:26:01;;;;;;;8.45;6.78;;;;;;;22.81;51.51;100744.91;5068497;28;20445;-63
2023/06/19 00:28:27;;;;;;;9.52;7.28;;;;;;;22.81;51.63;100744.06;5072703;28;20369;-62
2023/06/19 00:30:55;;;;;;;7.65;6.95;;;;;;;22.72;51.57;100744.94;5083104;28;20387;-62
2023/06/19 00:33:21;;;;;;;8.65;7.80;;;;;;;22.72;51.82;100746.94;5073819;28;20033;-63
2023/06/19 00:35:46;;;;;;;9.35;7.80;;;;;;;22.68;51.73;100755.28;5073434;28;20051;-63
2023/06/19 00:38:12;;;;;;;8.68;7.78;;;;;;;22.72;51.70;100747.78;5073283;28;20035;-63
2023/06/19 00:40:37;;;;;;;8.23;7.50;;;;;;;22.66;52.06;100759.59;5070793;28;20029;-62
2023/06/19 00:43:03;;;;;;;9.10;8.20;;;;;;;22.60;52.31;100763.75;5072550;28;20078;-63
2023/06/19 00:45:29;;;;;;;8.82;7.65;;;;;;;22.63;52.14;100766.75;5073233;28;20028;-62
2023/06/19 00:47:56;;;;;;;7.85;7.05;;;;;;;22.62;52.00;100769.94;5069718;28;20038;-63
2023/06/19 00:50:22;;;;;;;7.80;6.97;;;;;;;22.58;52.10;100766.09;5059400;28;20036;-63
2023/06/19 00:52:48;;;;;;;7.20;6.32;;;;;;;22.59;52.01;100771.41;5053214;28;20499;-62
2023/06/19 00:55:15;;;;;;;7.88;7.07;;;;;;;22.51;52.45;100773.09;5052155;28;20100;-63
2023/06/19 00:57:41;;;;;;;8.82;6.30;;;;;;;22.45;52.70;100774.47;5055116;28;20079;-62
2023/06/19 01:00:08;;;;;;;7.57;6.43;;;;;;;22.44;52.70;100780.44;5071806;28;20040;-63
2023/06/19 01:02:34;;;;;;;8.93;6.78;;;;;;;22.42;52.72;100780.78;5072172;28;20465;-62
2023/06/19 01:05:00;;;;;;;8.15;7.13;;;;;;;22.40;52.75;100780.28;5068479;28;20037;-63
2023/06/19 01:07:42;;;;;;;13.00;6.70;;;;;;;22.38;52.74;100781.78;5092182;28;20053;-63
2023/06/19 01:10:13;;;;;;;7.88;6.50;;;;;;;22.38;53.02;100781.78;5091364;28;20063;-63
2023/06/19 01:12:48;;;;;;;9.48;6.75;;;;;;;22.36;53.21;100778.44;5092674;28;20032;-63
2023/06/19 01:15:14;;;;;;;7.05;6.35;;;;;;;22.39;53.20;100784.25;5084729;28;20037;-63
2023/06/19 01:17:40;;;;;;;8.63;6.30;;;;;;;22.37;53.29;100780.13;5071738;28;20078;-62
2023/06/19 01:20:10;;;;;;;7.15;5.50;;;;;;;22.39;53.39;100789.09;5071103;28;20028;-63
2023/06/19 01:22:36;;;;;;;8.85;6.30;;;;;;;22.34;53.54;100781.63;5066075;28;20040;-63
2023/06/19 01:25:02;;;;;;;6.68;5.72;;;;;;;22.28;53.86;100783.81;5057393;28;20033;-63
2023/06/19 01:27:31;;;;;;;6.65;5.85;;;;;;;22.34;53.73;100786.44;5072784;28;20036;-63
2023/06/19 01:29:57;;;;;;;5.60;5.10;;;;;;;22.34;53.82;100781.63;5071605;28;20039;-62
2023/06/19 01:33:03;;;;;;;7.47;5.80;;;;;;;22.35;53.41;100793.75;5071231;28;20058;-63
2023/06/19 01:35:31;;;;;;;7.70;5.40;;;;;;;22.28;54.16;100799.91;5056987;28;20458;-63
2023/06/19 01:37:59;;;;;;;6.72;5.55;;;;;;;22.27;54.10;100793.44;5072921;28;20098;-63
2023/06/19 01:40:25;;;;;;;5.75;5.15;;;;;;;22.23;54.49;100798.09;5054823;28;20041;-63
2023/06/19 01:42:53;;;;;;;5.93;5.30;;;;;;;22.22;54.62;100802.09;5052265;28;20033;-62
2023/06/19 01:45:18;;;;;;;5.30;4.57;;;;;;;22.14;55.00;100793.63;5068128;28;20516;-63
2023/06/19 01:47:44;;;;;;;5.63;4.63;;;;;;;22.20;54.87;100798.75;5071894;28;20155;-62
2023/06/19 01:50:10;;;;;;;6.25;4.88;;;;;;;22.15;54.99;100807.41;5071429;28;20535;-62
2023/06/19 01:52:37;;;;;;;6.35;4.85;;;;;;;22.14;55.16;100808.56;5082127;28;20028;-62
2023/06/19 01:55:02;;;;;;;5.95;4.95;;;;;;;22.02;55.96;100809.19;5072418;28;20032;-63
2023/06/19 01:57:28;;;;;;;5.88;4.93;;;;;;;21.96;56.09;100806.84;5070891;28;20033;-62
2023/06/19 01:59:53;;;;;;;5.45;4.53;;;;;;;21.97;56.04;100806.56;5072268;28;20032;-63
2023/06/19 02:02:18;;;;;;;5.25;4.75;;;;;;;21.93;56.24;100818.81;5070305;28;20028;-63
2023/06/19 02:04:43;;;;;;;4.95;4.15;;;;;;;21.88;56.87;100816.16;5056329;28;20025;-63
2023/06/19 02:07:09;;;;;;;4.22;3.83;;;;;;;21.95;56.46;100820.16;5051445;28;20025;-63
2023/06/19 02:09:34;;;;;;;5.57;3.67;;;;;;;21.93;56.76;100816.84;5068935;28;20066;-63
2023/06/19 02:11:59;;;;;;;4.22;3.83;;;;;;;21.94;56.84;100828.97;5070904;28;20037;-63
2023/06/19 02:14:24;;;;;;;5.55;3.97;;;;;;;21.92;56.95;100823.66;5071356;28;20037;-63
2023/06/19 02:16:50;;;;;;;5.45;4.20;;;;;;;21.88;57.35;100824.63;5071188;28;20112;-63
2023/06/19 02:19:15;;;;;;;5.57;3.75;;;;;;;21.86;57.43;100821.31;5070099;28;20021;-62
2023/06/19 02:21:40;;;;;;;4.03;3.42;;;;;;;21.89;57.34;100826.28;5067426;28;20392;-64
2023/06/19 02:24:06;;;;;;;4.88;3.50;;;;;;;21.81;57.78;100825.97;5074811;28;20036;-64
2023/06/19 02:26:31;;;;;;;6.47;3.50;;;;;;;21.84;57.92;100832.13;5061213;28;20840;-64
2023/06/19 02:28:57;;;;;;;4.03;3.35;;;;;;;21.76;58.09;100819.63;5071138;28;20547;-64
2023/06/19 02:31:22;;;;;;;4.75;3.42;;;;;;;21.73;58.34;100828.75;5085623;28;20491;-64
2023/06/19 02:33:48;;;;;;;3.38;2.95;;;;;;;21.70;58.51;100832.25;5070104;28;20021;-64
2023/06/19 02:36:19;;;;;;;4.15;3.33;;;;;;;21.68;58.68;100826.09;5070797;28;20032;-63
2023/06/19 02:38:44;;;;;;;3.47;3.10;;;;;;;21.66;58.73;100829.25;5071450;28;20025;-64
2023/06/19 02:41:10;;;;;;;5.68;3.25;;;;;;;21.61;59.05;100828.56;5076663;28;20024;-65
2023/06/19 02:43:35;;;;;;;4.32;2.95;;;;;;;21.65;58.89;100826.75;5078556;28;20075;-64
2023/06/19 02:46:00;;;;;;;3.22;2.67;;;;;;;21.62;59.20;100825.44;5069712;28;20037;-64
2023/06/19 02:48:26;;;;;;;6.63;3.00;;;;;;;21.60;59.41;100835.38;5071331;28;20027;-64
2023/06/19 02:50:51;;;;;;;3.55;2.92;;;;;;;21.53;59.58;100833.03;5078532;28;20535;-64
2023/06/19 02:53:16;;;;;;;3.63;3.03;;;;;;;21.54;59.56;100837.53;5070076;28;20059;-63
2023/06/19 02:55:42;;;;;;;6.75;2.60;;;;;;;21.51;59.70;100839.00;5071198;28;20024;-64
2023/06/19 02:58:07;;;;;;;3.67;3.22;;;;;;;21.54;59.76;100837.53;5070770;28;20047;-64
2023/06/19 03:00:32;;;;;;;4.20;2.92;;;;;;;21.56;59.67;100838.03;5066485;28;20107;-64
2023/06/19 03:02:58;;;;;;;4.25;2.78;;;;;;;21.59;59.60;100842.19;5071052;28;20083;-64
2023/06/19 03:05:24;;;;;;;4.68;3.22;;;;;;;21.58;59.68;100840.53;5071329;28;20063;-64
2023/06/19 03:07:49;;;;;;;3.72;2.80;;;;;;;21.56;59.83;100846.50;5070851;28;20028;-64
2023/06/19 03:10:14;;;;;;;3.55;3.10;;;;;;;21.49;60.17;100841.31;5069473;28;20472;-63
2023/06/19 03:12:40;;;;;;;3.50;2.83;;;;;;;21.55;59.74;100851.31;5078357;28;20123;-63
2023/06/19 03:15:05;;;;;;;8.05;3.03;;;;;;;21.50;60.11;100851.47;5089689;28;20102;-63
2023/06/19 03:17:31;;;;;;;4.85;3.13;;;;;;;21.43;60.54;100865.22;5056877;28;20044;-63
2023/06/19 03:19:56;;;;;;;4.15;3.10;;;;;;;21.47;60.28;100854.13;5051783;28;20033;-64
2023/06/19 03:22:22;;;;;;;4.22;3.50;;;;;;;21.48;60.33;100867.06;5075314;28;20028;-64
2023/06/19 03:24:47;;;;;;;5.03;3.10;;;;;;;21.40;60.47;100863.06;5076563;28;20028;-64
2023/06/19 03:27:12;;;;;;;3.55;3.25;;;;;;;21.43;60.43;100861.59;5070806;28;20787;-64
2023/06/19 03:29:37;;;;;;;4.35;3.53;;;;;;;21.33;60.89;100872.00;5069832;28;20025;-64
2023/06/19 03:32:03;;;;;;;6.72;3.95;;;;;;;21.30;60.99;100871.81;5069032;28;20037;-64
2023/06/19 03:34:28;;;;;;;6.03;3.80;;;;;;;21.32;60.92;100866.66;5066410;28;20025;-63
2023/06/19 03:36:54;;;;;;;5.47;3.97;;;;;;;21.19;61.54;100865.59;5069632;28;20033;-63
2023/06/19 03:39:19;;;;;;;4.35;3.80;;;;;;;21.17;61.62;100873.53;5070526;28;20031;-64
2023/06/19 03:41:44;;;;;;;4.72;3.88;;;;;;;21.17;61.77;100876.38;5069574;28;20033;-64
2023/06/19 03:44:10;;;;;;;6.25;4.43;;;;;;;21.11;62.05;100886.16;5070324;28;20115;-63
2023/06/19 03:46:35;;;;;;;5.82;4.20;;;;;;;21.20;61.79;100887.00;5068628;28;20480;-63
2023/06/19 03:49:00;;;;;;;4.32;3.90;;;;;;;21.20;61.93;100895.47;5069741;28;20032;-63
2023/06/19 03:51:25;;;;;;;4.38;3.97;;;;;;;21.13;62.17;100900.75;5066227;28;20035;-63
2023/06/19 03:53:51;;;;;;;6.85;4.45;;;;;;;21.05;62.86;100893.91;5070585;28;20035;-64
2023/06/19 03:56:16;;;;;;;6.38;4.03;;;;;;;21.07;62.62;100897.25;5069207;28;20501;-63
2023/06/19 03:58:41;;;;;;;5.68;4.03;;;;;;;21.16;62.37;100908.56;5070212;28;20032;-63
2023/06/19 04:01:07;;;;;;;5.03;4.20;;;;;;;21.23;62.33;100908.13;5071000;28;20025;-63
2023/06/19 04:03:32;;;;;;;5.25;3.78;;;;;;;21.18;62.60;100908.25;5073146;28;20523;-63
2023/06/19 04:05:58;;;;;;;6.00;4.40;;;;;;;21.20;62.67;100912.41;5074051;28;20027;-63
2023/06/19 04:08:25;;;;;;;5.65;3.95;;;;;;;21.18;62.84;100913.88;5072181;28;20029;-64
2023/06/19 04:10:50;;;;;;;4.93;3.80;;;;;;;21.16;63.25;100921.88;5069252;28;20036;-63
2023/06/19 04:13:15;;;;;;;4.85;4.15;;;;;;;21.11;63.15;100920.00;5073877;28;20035;-63
2023/06/19 04:15:43;;;;;;;5.53;4.45;;;;;;;21.17;63.22;100921.53;5073081;28;20045;-64
2023/06/19 04:18:09;;;;;;;5.68;4.45;;;;;;;21.22;63.10;100929.88;5090603;28;20031;-63
2023/06/19 04:20:34;;;;;;;7.30;4.28;;;;;;;21.20;63.35;100929.34;5083461;28;20766;-64
2023/06/19 04:22:59;;;;;;;5.25;4.53;;;;;;;21.17;63.50;100929.16;5073839;28;20039;-63
2023/06/19 04:25:25;;;;;;;5.95;4.28;;;;;;;21.23;63.25;100928.72;5071745;28;20468;-63
2023/06/19 04:27:50;;;;;;;6.90;4.20;;;;;;;21.23;63.63;100927.88;5067720;28;20043;-64
2023/06/19 04:30:15;;;;;;;4.95;4.38;;;;;;;21.17;63.78;100938.47;5072768;28;20047;-64
2023/06/19 04:32:40;;;;;;;6.53;4.43;;;;;;;21.20;63.59;100940.66;5073011;28;20029;-63
2023/06/19 04:35:07;;;;;;;5.82;4.32;;;;;;;21.20;63.62;100940.66;5075039;28;20128;-63
2023/06/19 04:37:33;;;;;;;10.95;5.28;;;;;;;21.15;64.26;100948.44;5073401;28;20040;-64
2023/06/19 04:39:58;;;;;;;5.78;4.80;;;;;;;21.11;64.43;100948.25;5072463;28;20036;-64
2023/06/19 04:42:24;;;;;;;5.18;4.53;;;;;;;21.18;64.26;100954.25;5073114;28;20498;-64
2023/06/19 04:44:49;;;;;;;5.93;4.43;;;;;;;21.20;64.23;100957.59;5073128;28;20021;-64
2023/06/19 04:47:18;;;;;;;7.05;4.97;;;;;;;21.11;64.42;100958.69;5071927;28;20044;-64
2023/06/19 04:49:43;;;;;;;6.78;5.07;;;;;;;21.19;64.11;100958.75;5071311;28;20468;-63
2023/06/19 04:52:09;;;;;;;7.57;4.78;;;;;;;21.22;64.11;100966.56;5069355;28;20032;-63
2023/06/19 04:54:34;;;;;;;5.10;4.60;;;;;;;21.21;64.27;100964.06;5090817;28;20387;-63
2023/06/19 04:57:00;;;;;;;6.45;5.07;;;;;;;21.28;63.83;100959.63;5076887;28;20123;-64
2023/06/19 04:59:25;;;;;;;6.30;4.88;;;;;;;21.27;64.12;100957.97;5066052;28;20032;-64
2023/06/19 05:01:53;;;;;;;5.78;5.00;;;;;;;21.29;64.15;100960.44;5064976;28;20510;-64
2023/06/19 05:04:22;;;;;;;9.10;5.45;;;;;;;21.24;64.30;100963.41;5067539;28;20035;-63
2023/06/19 05:06:48;;;;;;;6.80;4.85;;;;;;;21.24;64.70;100958.59;5071850;28;20852;-64
2023/06/19 05:09:14;;;;;;;10.38;5.30;;;;;;;21.25;64.55;100960.25;5079820;28;20028;-63
2023/06/19 05:11:39;;;;;;;5.60;4.95;;;;;;;21.25;64.42;100963.09;5092892;28;20537;-64
2023/06/19 05:14:04;;;;;;;6.68;4.80;;;;;;;21.28;64.56;100970.91;5085253;28;20056;-63
2023/06/19 05:16:30;;;;;;;5.55;4.95;;;;;;;21.28;64.50;100965.28;5072422;28;20043;-64
2023/06/19 05:18:55;;;;;;;6.88;4.82;;;;;;;21.27;64.56;100974.91;5071092;28;20111;-64
2023/06/19 05:21:20;;;;;;;9.68;4.93;;;;;;;21.26;64.63;100972.38;5058255;28;20807;-64
2023/06/19 05:23:50;;;;;;;5.90;4.95;;;;;;;21.27;64.71;100979.72;5079584;28;20459;-64
2023/06/19 05:26:18;;;;;;;5.82;4.90;;;;;;;21.30;64.63;100979.09;5093001;28;20020;-64
2023/06/19 05:28:44;;;;;;;6.65;5.60;;;;;;;21.25;64.85;100982.00;5063215;28;20476;-64
2023/06/19 05:31:09;;;;;;;5.95;4.93;;;;;;;21.31;64.43;100987.22;5070322;28;20079;-61
2023/06/19 05:33:34;;;;;;;6.47;5.30;;;;;;;21.32;64.47;100990.88;5072877;28;20028;-62
2023/06/19 05:36:00;;;;;;;6.90;5.57;;;;;;;21.38;64.27;100985.94;5071048;28;20491;-61
2023/06/19 05:38:28;;;;;;;11.50;6.28;;;;;;;21.32;64.46;100988.03;5068000;28;20020;-63
2023/06/19 05:40:53;;;;;;;5.93;5.32;;;;;;;21.35;64.31;100983.78;5072191;28;20025;-63
2023/06/19 05:43:18;;;;;;;7.22;5.50;;;;;;;21.40;64.12;100989.28;5070723;28;20490;-63
2023/06/19 05:45:44;;;;;;;6.28;5.60;;;;;;;21.36;64.20;100994.75;5072646;28;20511;-63
2023/06/19 05:48:09;;;;;;;8.30;5.28;;;;;;;21.39;64.20;100987.63;5080518;28;20028;-63
2023/06/19 05:50:35;;;;;;;7.00;5.55;;;;;;;21.38;63.83;101000.91;5092889;28;20028;-62
2023/06/19 05:53:00;;;;;;;6.50;5.85;;;;;;;21.37;64.19;100995.56;5090567;28;20032;-62
2023/06/19 05:55:27;;;;;;;8.90;6.53;;;;;;;21.36;64.39;100996.75;5069391;28;20028;-62
2023/06/19 05:57:52;;;;;;;6.45;5.68;;;;;;;21.43;63.82;100995.13;5064466;28;20055;-63
2023/06/19 06:00:19;;;;;;;6.15;5.63;;;;;;;21.51;63.69;100999.16;5069495;28;20060;-63
2023/06/19 06:02:44;;;;;;;8.95;6.00;;;;;;;21.57;63.39;100989.38;5069975;28;20025;-63
2023/06/19 06:05:09;;;;;;;6.15;5.55;;;;;;;21.63;62.77;100995.75;5062319;28;20024;-63
2023/06/19 06:07:35;;;;;;;6.68;5.97;;;;;;;21.68;62.43;101006.88;5063839;28;20156;-62
2023/06/19 06:10:01;;;;;;;8.52;6.47;;;;;;;21.68;61.70;101010.53;5075714;28;20450;-62
2023/06/19 06:12:26;;;;;;;7.22;6.57;;;;;;;21.70;61.22;101007.41;5071459;28;20035;-62
2023/06/19 06:14:51;;;;;;;5.88;5.38;;;;;;;21.73;60.77;101024.56;5071322;28;20110;-62
2023/06/19 06:17:17;;;;;;;8.73;7.15;;;;;;;21.68;60.83;101024.66;5072093;28;20068;-63
2023/06/19 06:19:42;;;;;;;9.60;7.55;;;;;;;21.75;60.11;101030.69;5075274;28;20036;-63
2023/06/19 06:22:07;;;;;;;9.20;7.38;;;;;;;21.81;60.05;101026.59;5070598;28;20086;-63
2023/06/19 06:24:33;;;;;;;10.73;8.40;;;;;;;21.85;59.98;101038.06;5064223;28;20025;-63
2023/06/19 06:26:58;;;;;;;9.32;8.52;;;;;;;21.89;59.57;101041.06;5069600;28;20059;-62
2023/06/19 06:29:24;;;;;;;10.15;8.55;;;;;;;21.84;59.47;101035.56;5091554;28;20046;-62
2023/06/19 06:32:11;;;;;;;9.35;8.15;;;;;;;21.99;58.97;101040.78;5075985;28;20036;-62
2023/06/19 06:34:36;;;;;;;8.80;8.00;;;;;;;22.08;58.46;101047.31;5061021;28;20441;-62
2023/06/19 06:37:02;;;;;;;8.77;7.97;;;;;;;22.10;58.30;101049.81;5070075;28;20060;-63
2023/06/19 06:39:27;;;;;;;9.65;8.85;;;;;;;22.12;57.92;101058.78;5069007;28;20032;-63
2023/06/19 06:41:52;;;;;;;5.40;4.90;;;;;;;22.29;56.65;101062.56;5062577;28;20565;-63
2023/06/19 06:44:18;;;;;;;6.55;4.57;;;;;;;22.43;56.23;101064.44;5070383;28;20020;-63
2023/06/19 06:46:43;;;;;;;8.15;7.25;;;;;;;22.39;56.65;101069.06;5069987;28;20070;-63
2023/06/19 06:49:09;;;;;;;8.15;7.35;;;;;;;22.44;56.35;101068.91;5067594;28;20771;-63
2023/06/19 06:51:34;;;;;;;8.88;8.07;;;;;;;22.41;55.99;101081.75;5067433;28;20032;-63
2023/06/19 06:53:59;;;;;;;8.07;7.20;;;;;;;22.46;55.59;101078.75;5069079;28;20112;-63
2023/06/19 06:56:24;;;;;;;9.35;8.05;;;;;;;22.44;56.22;101075.44;5069935;28;20032;-63
2023/06/19 06:58:50;;;;;;;5.80;5.05;;;;;;;22.52;55.07;101073.78;5062598;28;20067;-63
2023/06/19 07:01:15;;;;;;;6.85;6.10;;;;;;;22.55;55.55;101076.75;5062356;28;20039;-62
2023/06/19 07:03:41;;;;;;;8.73;7.93;;;;;;;22.55;55.51;101076.75;5070677;28;20029;-62
2023/06/19 07:06:06;;;;;;;9.43;8.50;;;;;;;22.53;55.17;101081.94;5074673;28;20036;-62
2023/06/19 07:08:31;;;;;;;5.72;5.22;;;;;;;22.66;54.66;101077.31;5079055;28;20077;-63
2023/06/19 07:10:57;;;;;;;11.07;9.93;;;;;;;22.60;55.02;101092.78;5069085;28;20032;-63
2023/06/19 07:13:23;;;;;;;7.82;6.53;;;;;;;22.70;54.23;101098.13;5069551;28;20026;-61
2023/06/19 07:15:48;;;;;;;9.82;8.85;;;;;;;22.75;55.20;101100.81;5076621;28;20048;-63
2023/06/19 07:18:13;;;;;;;6.55;6.00;;;;;;;22.90;53.98;101091.00;5069165;28;20056;-62
2023/06/19 07:20:38;;;;;;;8.95;8.05;;;;;;;22.91;53.69;101089.03;5069345;28;20036;-62
2023/06/19 07:23:04;;;;;;;48.10;11.85;;;;;;;22.94;54.18;101091.19;5076140;28;20034;-62
2023/06/19 07:25:29;;;;;;;32.60;8.75;;;;;;;23.08;53.88;101103.22;5070497;28;20419;-63
2023/06/19 07:27:54;;;;;;;64.38;12.60;;;;;;;23.10;53.82;101102.88;5079540;28;20032;-63
2023/06/19 07:30:20;;;;;;;23.92;9.05;;;;;;;23.10;52.94;101103.69;5075325;28;20029;-63
2023/06/19 07:32:45;;;;;;;11.85;7.75;;;;;;;23.11;53.49;101102.56;5069415;28;20044;-63
2023/06/19 07:35:11;;;;;;;15.70;8.05;;;;;;;23.16;53.23;101113.72;5060056;28;20036;-63
2023/06/19 07:37:36;;;;;;;16.13;7.32;;;;;;;23.23;53.41;101104.72;5074867;28;20035;-64
2023/06/19 07:40:02;;;;;;;10.55;8.15;;;;;;;23.15;53.49;101114.88;5090930;28;20042;-64
2023/06/19 07:42:27;;;;;;;10.98;8.27;;;;;;;23.13;53.16;101110.72;5067498;28;20032;-63
2023/06/19 07:44:53;;;;;;;15.93;7.30;;;;;;;23.21;53.12;101110.72;5069964;28;20075;-64
2023/06/19 07:47:18;;;;;;;15.18;7.03;;;;;;;23.24;53.89;101112.06;5075062;28;20028;-63
2023/06/19 07:49:44;;;;;;;34.80;7.78;;;;;;;23.16;53.20;101115.72;5059002;28;20028;-64
2023/06/19 07:52:09;;;;;;;15.30;6.90;;;;;;;23.25;53.22;101110.88;5057162;28;20032;-63
2023/06/19 07:54:35;;;;;;;9.98;7.80;;;;;;;23.17;53.47;101109.72;5064607;28;20111;-63
2023/06/19 07:57:00;;;;;;;10.02;7.38;;;;;;;23.18;53.82;101117.03;5064399;28;20032;-63
2023/06/19 07:59:26;;;;;;;11.10;6.55;;;;;;;23.30;53.61;101107.88;5068678;28;20083;-62
2023/06/19 08:01:51;;;;;;;12.50;6.40;;;;;;;23.42;52.90;101115.69;5076938;28;20054;-66
2023/06/19 08:04:17;;;;;;;9.73;6.80;;;;;;;23.39;53.52;101120.06;5079064;28;20060;-62
2023/06/19 08:06:42;;;;;;;9.88;6.32;;;;;;;23.52;53.48;101112.53;5063863;28;20029;-61
2023/06/19 08:09:07;;;;;;;10.07;6.07;;;;;;;23.61;53.62;101121.84;5055113;28;20035;-64
2023/06/19 08:11:32;;;;;;;9.02;6.57;;;;;;;23.62;53.43;101119.84;5073552;28;20055;-65
2023/06/19 08:13:58;;;;;;;8.35;5.65;;;;;;;23.67;53.35;101117.72;5075614;28;20029;-65
2023/06/19 08:16:25;;;;;;;11.45;6.70;;;;;;;23.69;53.01;101125.88;5076942;28;20077;-66
2023/06/19 08:18:51;;;;;;;10.88;7.00;;;;;;;23.74;52.23;101123.72;5089599;28;20031;-62
2023/06/19 08:21:16;;;;;;;8.43;6.22;;;;;;;23.87;52.70;101121.88;5073485;28;20028;-61
2023/06/19 08:23:43;;;;;;;8.15;6.72;;;;;;;23.93;52.10;101119.66;5080124;28;20105;-61
2023/06/19 08:26:10;;;;;;;9.05;8.15;;;;;;;23.88;51.92;101111.34;5067741;28;20044;-64
2023/06/19 08:28:35;;;;;;;9.52;7.00;;;;;;;23.98;51.55;101111.00;5076230;28;20774;-63
2023/06/19 08:31:01;;;;;;;7.65;6.60;;;;;;;23.98;51.55;101111.84;5076536;28;20032;-65
2023/06/19 08:33:26;;;;;;;14.65;6.30;;;;;;;24.06;52.14;101127.16;5081116;28;20044;-65
2023/06/19 08:35:52;;;;;;;8.38;5.20;;;;;;;24.11;51.48;101126.97;5074978;28;20041;-64
2023/06/19 08:38:18;;;;;;;7.50;5.30;;;;;;;24.11;50.77;101128.97;5078168;28;20103;-65
2023/06/19 08:40:43;;;;;;;6.47;5.88;;;;;;;24.10;52.00;101148.00;5087375;28;20127;-64
2023/06/19 08:43:09;;;;;;;8.98;6.35;;;;;;;24.05;52.39;101138.81;5070214;28;20082;-65
2023/06/19 08:45:34;;;;;;;9.73;6.18;;;;;;;24.04;51.89;101149.34;5070516;28;20032;-65
2023/06/19 08:48:04;;;;;;;9.98;6.85;;;;;;;24.03;51.34;101147.69;5072008;28;20425;-65
2023/06/19 08:50:30;;;;;;;6.63;5.28;;;;;;;24.09;52.00;101146.34;5059479;28;20028;-65
2023/06/19 08:52:56;;;;;;;6.90;5.30;;;;;;;24.06;51.41;101152.69;5069572;28;20547;-66
2023/06/19 08:55:22;;;;;;;5.82;5.32;;;;;;;24.09;51.82;101160.53;5077995;28;20119;-65
2023/06/19 08:57:49;;;;;;;6.85;6.15;;;;;;;24.12;51.42;101168.31;5075719;28;20030;-65
2023/06/19 09:00:26;;;;;;;8.30;7.45;;;;;;;24.07;51.81;101162.84;5080851;28;20024;-65
2023/06/19 09:02:52;;;;;;;7.03;6.30;;;;;;;24.09;50.79;101166.19;5065706;28;20032;-65
2023/06/19 09:05:18;;;;;;;10.02;6.72;;;;;;;24.06;50.88;101161.19;5070227;28;20032;-64
2023/06/19 09:07:54;;;;;;;8.05;6.93;;;;;;;24.02;50.43;101168.69;5080420;28;20475;-64
2023/06/19 09:10:19;;;;;;;10.93;7.57;;;;;;;24.02;51.28;101162.19;5076087;28;20032;-65
2023/06/19 09:13:05;;;;;;;13.63;8.50;;;;;;;24.05;51.57;101170.00;5076100;28;20028;-63
2023/06/19 09:15:35;;;;;;;9.05;6.82;;;;;;;24.03;50.85;101161.03;5067181;28;20032;-63
2023/06/19 09:18:10;;;;;;;8.27;6.78;;;;;;;24.14;51.27;101165.16;5082625;28;20028;-63
2023/06/19 09:20:43;;;;;;;9.65;7.53;;;;;;;24.14;50.81;101170.84;5077152;28;20032;-63
2023/06/19 09:23:10;;;;;;;7.38;6.57;;;;;;;24.25;50.24;101181.50;5067204;28;20036;-64
2023/06/19 09:25:53;;;;;;;7.90;6.50;;;;;;;24.37;50.42;101182.81;5070621;28;20029;-63
2023/06/19 09:28:20;;;;;;;10.65;7.40;;;;;;;24.38;49.09;101190.13;5071047;28;20028;-62
2023/06/19 09:30:56;;;;;;;8.93;6.95;;;;;;;24.43;49.85;101184.28;5070672;28;20051;-64
2023/06/19 09:33:26;;;;;;;10.40;7.10;;;;;;;24.43;49.33;101185.13;5069518;28;20107;-63
2023/06/19 09:35:54;;;;;;;8.52;7.18;;;;;;;24.50;49.06;101190.28;5070969;28;20032;-63
2023/06/19 09:38:28;;;;;;;8.10;7.30;;;;;;;24.51;49.04;101203.28;5065874;28;20024;-64
2023/06/19 09:40:56;;;;;;;10.40;7.53;;;;;;;24.52;47.58;101193.59;5050893;28;20041;-64
2023/06/19 09:43:29;;;;;;;10.82;7.53;;;;;;;24.57;48.00;101201.94;5060698;28;20055;-64
2023/06/19 09:45:57;;;;;;;9.02;7.43;;;;;;;24.61;48.27;101196.44;5070954;28;20040;-64
2023/06/19 09:48:34;;;;;;;9.32;8.07;;;;;;;24.65;48.03;101198.25;5070202;28;20050;-64
2023/06/19 09:51:18;;;;;;;9.30;7.53;;;;;;;24.71;48.29;101191.19;5069894;28;20035;-63
2023/06/19 09:53:48;;;;;;;8.55;7.55;;;;;;;24.70;47.43;101191.53;5074568;28;20040;-63
2023/06/19 09:56:14;;;;;;;8.10;7.30;;;;;;;24.79;47.83;101188.66;5055632;28;20025;-63
2023/06/19 09:58:43;;;;;;;8.60;7.78;;;;;;;24.80;47.66;101194.00;5076693;28;20395;-64
2023/06/19 10:01:08;;;;;;;9.55;6.90;;;;;;;24.85;46.72;101201.50;5059466;28;20107;-62
2023/06/19 10:03:35;;;;;;;10.60;8.32;;;;;;;24.78;47.21;101198.34;5069936;28;20063;-65
2023/06/19 10:06:02;;;;;;;10.23;8.70;;;;;;;24.83;47.23;101203.81;5071798;28;20044;-66
2023/06/19 10:08:50;;;;;;;18.58;9.77;;;;;;;24.91;48.13;101191.59;5068828;28;20138;-65
2023/06/19 10:11:15;;;;;;;19.42;12.48;;;;;;;24.93;47.75;101206.28;5065595;28;20158;-64
2023/06/19 10:13:41;;;;;;;10.63;8.85;;;;;;;25.04;47.16;101198.22;5067011;28;20114;-61
2023/06/19 10:16:19;;;;;;;13.65;8.23;;;;;;;25.03;46.94;101196.53;5066964;28;20037;-62
2023/06/19 10:18:47;;;;;;;9.65;7.78;;;;;;;25.07;46.80;101198.34;5088015;28;20423;-61
2023/06/19 10:21:44;;;;;;;9.45;7.57;;;;;;;25.13;46.64;101210.38;5077102;28;20024;-61
2023/06/19 10:24:14;;;;;;;9.48;7.95;;;;;;;25.13;46.61;101204.72;5081277;28;20476;-62
2023/06/19 10:26:40;;;;;;;9.98;7.57;;;;;;;25.15;46.11;101196.66;5069399;28;20502;-63
2023/06/19 10:29:16;;;;;;;7.88;7.07;;;;;;;25.13;46.45;101196.19;5064889;28;20115;-63
2023/06/19 10:31:42;;;;;;;10.02;7.00;;;;;;;25.20;46.42;101203.00;5053628;28;20036;-63
2023/06/19 10:34:08;;;;;;;12.13;7.72;;;;;;;25.29;46.36;101207.78;5075153;28;20157;-64
2023/06/19 10:36:33;;;;;;;8.82;7.78;;;;;;;25.27;45.55;101204.44;5070146;28;20559;-63
2023/06/19 10:38:59;;;;;;;9.13;7.43;;;;;;;25.34;45.70;101207.56;5073820;28;20027;-64
2023/06/19 10:41:25;;;;;;;9.25;7.22;;;;;;;25.37;45.14;101218.25;5076218;28;20040;-63
2023/06/19 10:43:55;;;;;;;9.02;7.22;;;;;;;25.37;45.50;101207.72;5085972;28;20028;-64
2023/06/19 10:46:21;;;;;;;11.60;8.25;;;;;;;25.26;45.48;101206.44;5077360;28;20020;-63
2023/06/19 10:48:47;;;;;;;9.77;7.35;;;;;;;25.22;45.29;101212.00;5070911;28;20051;-65
2023/06/19 10:51:18;;;;;;;11.48;7.78;;;;;;;25.19;44.59;101207.00;5078528;28;20155;-64
2023/06/19 10:53:44;;;;;;;7.38;6.50;;;;;;;25.22;43.99;101205.47;5067987;28;20047;-64
2023/06/19 10:56:09;;;;;;;9.18;7.30;;;;;;;25.26;44.04;101197.09;5078911;28;20028;-64
2023/06/19 10:58:34;;;;;;;7.68;6.35;;;;;;;25.22;43.98;101194.13;5070705;28;20047;-63
2023/06/19 11:01:00;;;;;;;9.00;6.40;;;;;;;25.21;43.85;101196.13;5086729;28;21674;-63
2023/06/19 11:03:25;;;;;;;7.72;6.90;;;;;;;25.20;44.22;101197.31;5070519;28;20041;-64
2023/06/19 11:05:50;;;;;;;8.07;7.15;;;;;;;25.19;43.49;101192.81;5051688;28;20158;-64
2023/06/19 11:08:21;;;;;;;9.68;6.95;;;;;;;25.19;44.56;101189.97;5075322;28;20039;-64
2023/06/19 11:10:46;;;;;;;9.43;7.15;;;;;;;25.30;45.09;101187.53;5070955;28;20028;-63
2023/06/19 11:13:16;;;;;;;10.07;7.35;;;;;;;25.33;43.93;101183.19;5069195;28;20035;-64
2023/06/19 11:15:42;;;;;;;11.00;6.95;;;;;;;25.37;44.46;101184.97;5083261;28;20051;-65
2023/06/19 11:18:07;;;;;;;11.90;7.50;;;;;;;25.47;44.08;101192.28;5055421;28;20468;-64
2023/06/19 11:20:52;;;;;;;8.55;6.68;;;;;;;25.59;44.46;101178.13;5064052;28;20051;-65
2023/06/19 11:23:26;;;;;;;8.90;7.47;;;;;;;25.70;44.37;101184.22;5068744;28;20099;-65